createdAt,value
2016-06-23T00:01:24.042Z,19.02
2016-06-23T00:02:24.670Z,19.06
2016-06-23T00:03:24.704Z,19.02
2016-06-23T00:04:39.607Z,18.94
2016-06-23T00:05:24.761Z,19.02
2016-06-23T00:06:24.776Z,18.92
2016-06-23T00:07:24.246Z,18.94
2016-06-23T00:08:24.234Z,18.95
2016-06-23T00:09:24.249Z,19.07
2016-06-23T00:10:24.331Z,19.04
2016-06-23T00:12:24.948Z,19.1
2016-06-23T00:13:25.569Z,19.14
2016-06-23T00:14:25.610Z,19.11
2016-06-23T00:16:25.658Z,19.16
2016-06-23T00:17:25.063Z,19.06
2016-06-23T00:19:24.507Z,19.07
2016-06-23T00:20:25.766Z,19.04
2016-06-23T00:21:25.176Z,18.98
2016-06-23T00:22:25.199Z,18.98
2016-06-23T00:23:24.639Z,18.99
2016-06-23T00:24:25.862Z,19.02
2016-06-23T00:25:25.289Z,19.06
2016-06-23T00:26:25.293Z,19.04
2016-06-23T00:27:25.928Z,19.06
2016-06-23T00:29:25.378Z,19.04
2016-06-23T00:30:26.015Z,18.94
2016-06-23T00:31:26.041Z,18.84
2016-06-23T00:32:25.450Z,18.87
2016-06-23T00:33:25.472Z,18.9
2016-06-23T00:34:24.907Z,18.87
2016-06-23T00:35:24.923Z,18.75
2016-06-23T00:36:24.946Z,18.75
2016-06-23T00:37:25.585Z,18.69
2016-06-23T00:38:26.213Z,18.8
2016-06-23T00:39:25.632Z,18.73
2016-06-23T00:40:26.275Z,18.73
2016-06-23T00:41:25.075Z,18.75
2016-06-23T00:42:25.717Z,18.82
2016-06-23T00:43:40.607Z,18.73
2016-06-23T00:45:26.394Z,18.76
2016-06-23T00:46:25.197Z,18.69
2016-06-23T00:47:25.232Z,18.7
2016-06-23T00:48:26.465Z,18.65
2016-06-23T00:49:25.881Z,18.7
2016-06-23T00:50:40.797Z,18.67
2016-06-23T00:51:25.939Z,18.7
2016-06-23T00:52:25.352Z,18.7
2016-06-23T00:53:25.992Z,18.63
2016-06-23T00:54:26.022Z,18.57
2016-06-23T00:55:26.035Z,18.65
2016-06-23T00:57:25.492Z,18.62
2016-06-23T00:58:26.115Z,18.65
2016-06-23T01:00:26.178Z,18.52
2016-06-23T01:01:26.818Z,18.48
2016-06-23T01:02:40.500Z,18.41
2016-06-23T01:03:26.873Z,18.48
2016-06-23T01:04:26.277Z,18.45
2016-06-23T01:05:25.720Z,18.36
2016-06-23T01:06:26.341Z,18.51
2016-06-23T01:07:26.402Z,18.36
2016-06-23T01:08:26.985Z,18.41
2016-06-23T01:09:27.131Z,18.47
2016-06-23T01:10:27.040Z,18.5
2016-06-23T01:11:26.605Z,18.5
2016-06-23T01:12:26.084Z,18.42
2016-06-23T01:13:26.765Z,18.39
2016-06-23T01:14:26.572Z,18.44
2016-06-23T01:15:40.827Z,18.48
2016-06-23T01:16:26.577Z,18.42
2016-06-23T01:17:26.606Z,18.39
2016-06-23T01:18:26.023Z,18.45
2016-06-23T01:19:26.655Z,18.39
2016-06-23T01:20:26.076Z,18.41
2016-06-23T01:21:26.102Z,18.39
2016-06-23T01:22:26.732Z,18.42
2016-06-23T01:23:26.149Z,18.25
2016-06-23T01:24:26.784Z,18.39
2016-06-23T01:25:26.200Z,18.33
2016-06-23T01:26:26.834Z,18.3
2016-06-23T01:28:27.491Z,18.32
2016-06-23T01:29:26.917Z,18.36
2016-06-23T01:30:27.549Z,18.39
2016-06-23T01:31:41.851Z,18.41
2016-06-23T01:32:26.381Z,18.44
2016-06-23T01:33:27.013Z,18.32
2016-06-23T01:34:27.046Z,18.27
2016-06-23T01:35:41.948Z,18.2
2016-06-23T01:36:27.091Z,18.23
2016-06-23T01:37:26.511Z,18.27
2016-06-23T01:38:27.153Z,18.21
2016-06-23T01:39:27.765Z,18.1
2016-06-23T01:40:26.588Z,18.11
2016-06-23T01:41:27.214Z,18.14
2016-06-23T01:42:27.251Z,18.14
2016-06-23T01:43:27.271Z,18.23
2016-06-23T01:44:27.304Z,18.14
2016-06-23T01:45:26.708Z,18.18
2016-06-23T01:46:41.614Z,18.26
2016-06-23T01:47:27.374Z,18.11
2016-06-23T01:48:28.007Z,18.1
2016-06-23T01:49:27.422Z,18.17
2016-06-23T01:51:27.467Z,18.21
2016-06-23T01:52:28.098Z,18.14
2016-06-23T01:53:28.141Z,18.1
2016-06-23T01:54:41.818Z,18.18
2016-06-23T01:55:26.968Z,18.23
2016-06-23T01:56:26.989Z,18.29
2016-06-23T01:57:27.011Z,18.29
2016-06-23T01:58:28.265Z,18.27
2016-06-23T01:59:28.295Z,18.27
2016-06-23T02:01:27.113Z,18.3
2016-06-23T02:02:28.351Z,18.36
2016-06-23T02:03:28.389Z,18.32
2016-06-23T02:04:27.824Z,18.29
2016-06-23T02:05:42.714Z,18.3
2016-06-23T02:06:28.470Z,18.27
2016-06-23T02:07:27.273Z,18.1
2016-06-23T02:09:27.947Z,18.11
2016-06-23T02:10:27.958Z,18.12
2016-06-23T02:11:27.991Z,18.12
2016-06-23T02:12:27.398Z,18.15
2016-06-23T02:13:28.646Z,18.12
2016-06-23T02:14:28.058Z,18.1
2016-06-23T02:15:27.487Z,18.11
2016-06-23T02:16:28.715Z,18.18
2016-06-23T02:17:28.761Z,18.07
2016-06-23T02:18:43.044Z,18.05
2016-06-23T02:19:27.579Z,18.1
2016-06-23T02:20:27.610Z,18.1
2016-06-23T02:21:28.240Z,17.93
2016-06-23T02:22:28.262Z,17.95
2016-06-23T02:23:28.299Z,17.93
2016-06-23T02:24:28.312Z,18.11
2016-06-23T02:25:28.332Z,17.99
2016-06-23T02:26:27.746Z,18.03
2016-06-23T02:27:29.004Z,17.89
2016-06-23T02:28:27.803Z,17.87
2016-06-23T02:29:28.439Z,17.82
2016-06-23T02:30:27.851Z,17.84
2016-06-23T02:31:29.090Z,17.86
2016-06-23T02:32:28.513Z,17.89
2016-06-23T02:33:27.919Z,17.77
2016-06-23T02:34:42.833Z,17.81
2016-06-23T02:35:29.205Z,17.84
2016-06-23T02:36:42.888Z,17.75
2016-06-23T02:37:28.646Z,17.79
2016-06-23T02:38:29.290Z,17.79
2016-06-23T02:39:28.694Z,17.81
2016-06-23T02:40:28.719Z,17.75
2016-06-23T02:41:28.754Z,17.79
2016-06-23T02:42:29.383Z,17.81
2016-06-23T02:43:28.793Z,17.84
2016-06-23T02:44:29.448Z,17.82
2016-06-23T02:45:28.233Z,17.82
2016-06-23T02:46:28.261Z,17.82
2016-06-23T02:47:28.889Z,17.87
2016-06-23T02:48:28.906Z,17.84
2016-06-23T02:49:29.553Z,17.84
2016-06-23T02:50:43.859Z,17.9
2016-06-23T02:52:28.408Z,17.89
2016-06-23T02:53:29.054Z,17.93
2016-06-23T02:54:29.075Z,17.84
2016-06-23T02:55:28.485Z,17.84
2016-06-23T02:56:29.728Z,17.79
2016-06-23T02:57:28.535Z,17.81
2016-06-23T02:58:28.575Z,17.82
2016-06-23T02:59:29.808Z,17.72
2016-06-23T03:00:28.619Z,17.82
2016-06-23T03:01:29.864Z,17.79
2016-06-23T03:02:28.671Z,17.71
2016-06-23T03:03:29.293Z,17.78
2016-06-23T03:05:29.970Z,17.72
2016-06-23T03:06:43.646Z,17.82
2016-06-23T03:07:29.407Z,17.81
2016-06-23T03:08:28.813Z,17.74
2016-06-23T03:09:30.047Z,17.74
2016-06-23T03:11:30.115Z,17.78
2016-06-23T03:12:29.517Z,17.79
2016-06-23T03:13:29.540Z,17.71
2016-06-23T03:14:29.596Z,17.81
2016-06-23T03:15:30.203Z,17.79
2016-06-23T03:17:29.044Z,17.87
2016-06-23T03:18:29.071Z,17.86
2016-06-23T03:19:30.303Z,17.79
2016-06-23T03:20:29.109Z,17.79
2016-06-23T03:21:44.019Z,17.82
2016-06-23T03:22:30.384Z,17.89
2016-06-23T03:23:29.810Z,17.92
2016-06-23T03:24:29.828Z,17.97
2016-06-23T03:25:29.270Z,17.92
2016-06-23T03:26:44.149Z,17.93
2016-06-23T03:27:29.911Z,17.99
2016-06-23T03:28:29.919Z,17.92
2016-06-23T03:29:29.947Z,18
2016-06-23T03:30:30.578Z,18.02
2016-06-23T03:31:30.002Z,18.08
2016-06-23T03:32:29.419Z,18.1
2016-06-23T03:33:30.661Z,18.08
2016-06-23T03:34:30.712Z,18.14
2016-06-23T03:35:30.095Z,18.1
2016-06-23T03:36:30.137Z,18.25
2016-06-23T03:37:30.146Z,18.21
2016-06-23T03:38:29.564Z,18.29
2016-06-23T03:39:29.591Z,18.21
2016-06-23T03:40:30.233Z,18.36
2016-06-23T03:41:29.642Z,18.26
2016-06-23T03:42:29.669Z,18.37
2016-06-23T03:43:44.570Z,18.26
2016-06-23T03:44:30.937Z,18.32
2016-06-23T03:45:30.354Z,18.27
2016-06-23T03:46:30.383Z,18.37
2016-06-23T03:48:31.036Z,18.39
2016-06-23T03:49:30.457Z,18.37
2016-06-23T03:50:30.481Z,18.36
2016-06-23T03:51:29.894Z,18.44
2016-06-23T03:52:30.555Z,18.42
2016-06-23T03:53:45.428Z,18.36
2016-06-23T03:54:29.971Z,18.52
2016-06-23T03:55:30.596Z,18.44
2016-06-23T03:56:30.629Z,18.48
2016-06-23T03:57:30.061Z,18.5
2016-06-23T03:58:44.952Z,18.54
2016-06-23T03:59:30.700Z,18.62
2016-06-23T04:00:30.122Z,18.65
2016-06-23T04:01:30.773Z,18.75
2016-06-23T04:02:30.789Z,18.76
2016-06-23T04:03:30.817Z,18.75
2016-06-23T04:04:30.855Z,18.73
2016-06-23T04:05:30.242Z,18.8
2016-06-23T04:06:30.888Z,18.81
2016-06-23T04:07:30.306Z,18.75
2016-06-23T04:08:30.325Z,18.75
2016-06-23T04:09:45.231Z,18.84
2016-06-23T04:10:31.597Z,19.06
2016-06-23T04:11:31.011Z,19.5
2016-06-23T04:12:31.032Z,20.31
2016-06-23T04:13:31.061Z,21.37
2016-06-23T04:14:31.101Z,22.17
2016-06-23T04:15:31.118Z,22.94
2016-06-23T04:16:31.744Z,23.75
2016-06-23T04:17:30.547Z,24.68
2016-06-23T04:18:31.194Z,25.4
2016-06-23T04:19:30.608Z,25.85
2016-06-23T04:20:31.244Z,26.33
2016-06-23T04:21:31.280Z,26.63
2016-06-23T04:22:31.305Z,26.95
2016-06-23T04:23:30.711Z,27.14
2016-06-23T04:24:31.364Z,27.7
2016-06-23T04:25:46.283Z,28.17
2016-06-23T04:28:45.748Z,28.61
2016-06-23T04:29:31.498Z,28.59
2016-06-23T04:31:31.559Z,28.96
2016-06-23T04:32:30.988Z,29.48
2016-06-23T04:33:31.658Z,29.71
2016-06-23T04:34:32.262Z,30.13
2016-06-23T04:35:31.685Z,30.29
2016-06-23T04:36:31.715Z,30.7
2016-06-23T04:37:31.750Z,31.06
2016-06-23T04:38:31.787Z,31.31
2016-06-23T04:39:31.822Z,31.35
2016-06-23T04:40:31.230Z,31.7
2016-06-23T04:41:46.759Z,32.08
2016-06-23T04:42:31.915Z,31.99
2016-06-23T04:43:46.209Z,31.61
2016-06-23T04:44:31.362Z,31.58
2016-06-23T04:45:32.622Z,31.26
2016-06-23T04:46:32.638Z,31.57
2016-06-23T04:47:32.067Z,31.84
2016-06-23T04:48:32.104Z,32.1
2016-06-23T04:49:32.738Z,32.03
2016-06-23T04:50:47.049Z,31.86
2016-06-23T04:52:32.228Z,32.52
2016-06-23T04:53:32.265Z,32.79
2016-06-23T04:54:31.677Z,32.87
2016-06-23T04:55:31.710Z,32.87
2016-06-23T04:56:47.249Z,33.03
2016-06-23T04:57:31.795Z,33.31
2016-06-23T04:58:31.819Z,33.75
2016-06-23T04:59:32.449Z,34.03
2016-06-23T05:00:31.915Z,34.12
2016-06-23T05:01:31.911Z,33.94
2016-06-23T05:02:33.153Z,34.19
2016-06-23T05:03:32.587Z,34.25
2016-06-23T05:04:32.619Z,34.32
2016-06-23T05:05:32.665Z,34.3
2016-06-23T05:06:32.699Z,34.25
2016-06-23T05:07:32.119Z,34.34
2016-06-23T05:08:47.039Z,35.11
2016-06-23T05:09:32.790Z,35.26
2016-06-23T05:10:47.719Z,35.62
2016-06-23T05:11:32.860Z,35.6
2016-06-23T05:12:33.497Z,35.84
2016-06-23T05:13:32.928Z,35.62
2016-06-23T05:14:32.356Z,35.9
2016-06-23T05:16:33.655Z,36.07
2016-06-23T05:17:33.080Z,35.85
2016-06-23T05:18:33.726Z,35.96
2016-06-23T05:19:33.826Z,35.77
2016-06-23T05:20:33.189Z,36.08
2016-06-23T05:21:33.825Z,36.25
2016-06-23T05:22:33.869Z,36.49
2016-06-23T05:23:32.684Z,36.47
2016-06-23T05:24:33.328Z,35.94
2016-06-23T05:25:32.757Z,35.82
2016-06-23T05:26:33.395Z,35.6
2016-06-23T05:27:34.044Z,35.58
2016-06-23T05:28:48.369Z,35.71
2016-06-23T05:29:33.499Z,35.8
2016-06-23T05:30:32.933Z,35.87
2016-06-23T05:31:33.613Z,36.07
2016-06-23T05:32:33.623Z,36.01
2016-06-23T05:33:33.053Z,36.64
2016-06-23T05:34:34.306Z,36.85
2016-06-23T05:35:33.735Z,36.98
2016-06-23T05:36:33.759Z,36.81
2016-06-23T05:37:33.802Z,36.5
2016-06-23T05:38:33.224Z,36.49
2016-06-23T05:39:33.254Z,36.47
2016-06-23T05:40:33.915Z,36.29
2016-06-23T05:41:33.937Z,36.38
2016-06-23T05:42:33.973Z,36.22
2016-06-23T05:43:34.011Z,35.65
2016-06-23T05:44:48.325Z,36.05
2016-06-23T05:46:34.121Z,36.75
2016-06-23T05:47:34.160Z,37
2016-06-23T05:48:33.588Z,36.94
2016-06-23T05:49:34.241Z,37
2016-06-23T05:50:34.265Z,37
2016-06-23T05:51:34.310Z,37.18
2016-06-23T05:52:33.742Z,37.1
2016-06-23T05:53:33.764Z,37.29
2016-06-23T05:54:35.034Z,37.06
2016-06-23T05:55:34.461Z,36.83
2016-06-23T05:56:34.500Z,36.84
2016-06-23T05:57:33.920Z,37.15
2016-06-23T05:58:34.569Z,36.93
2016-06-23T05:59:34.000Z,37.1
2016-06-23T06:00:48.911Z,37.29
2016-06-23T06:01:34.074Z,37.03
2016-06-23T06:02:49.602Z,36.49
2016-06-23T06:03:34.746Z,36.71
2016-06-23T06:04:34.802Z,36.95
2016-06-23T06:05:34.225Z,36.93
2016-06-23T06:06:35.494Z,37.39
2016-06-23T06:07:34.898Z,37.74
2016-06-23T06:08:35.567Z,38.25
2016-06-23T06:09:34.373Z,38.88
2016-06-23T06:10:35.033Z,38.61
2016-06-23T06:11:35.670Z,38.76
2016-06-23T06:12:34.478Z,38.66
2016-06-23T06:14:34.578Z,37.63
2016-06-23T06:15:35.814Z,37.7
2016-06-23T06:16:50.131Z,37.78
2016-06-23T06:17:35.290Z,37.6
2016-06-23T06:18:34.711Z,37.86
2016-06-23T06:19:35.352Z,37.55
2016-06-23T06:20:35.397Z,37.39
2016-06-23T06:21:36.049Z,37.63
2016-06-23T06:22:36.092Z,37.82
2016-06-23T06:23:35.507Z,37.72
2016-06-23T06:24:34.933Z,37.72
2016-06-23T06:25:34.982Z,37.57
2016-06-23T06:26:35.012Z,37.6
2016-06-23T06:27:36.293Z,37.49
2016-06-23T06:28:36.301Z,37.7
2016-06-23T06:29:36.362Z,37.94
2016-06-23T06:30:35.162Z,37.85
2016-06-23T06:31:50.091Z,38.44
2016-06-23T06:32:35.849Z,38.76
2016-06-23T06:33:50.776Z,39.25
2016-06-23T06:34:50.813Z,39.52
2016-06-23T06:36:36.010Z,39.51
2016-06-23T06:38:50.355Z,39.47
2016-06-23T06:39:36.118Z,39.86
2016-06-23T06:41:50.483Z,39.23
2016-06-23T06:42:36.241Z,39.22
2016-06-23T06:43:36.275Z,39.54
2016-06-23T06:44:36.321Z,39.32
2016-06-23T06:45:51.243Z,39.69
2016-06-23T06:46:36.393Z,39.67
2016-06-23T06:47:36.434Z,40
2016-06-23T06:48:37.078Z,40.23
2016-06-23T06:49:37.123Z,39.92
2016-06-23T06:50:51.437Z,39.7
2016-06-23T06:51:35.975Z,39.6
2016-06-23T06:52:36.629Z,39.91
2016-06-23T06:53:37.274Z,39.79
2016-06-23T06:54:37.315Z,39.59
2016-06-23T06:55:36.130Z,39.16
2016-06-23T06:56:36.159Z,39.18
2016-06-23T06:57:36.815Z,39.79
2016-06-23T06:58:36.858Z,40.19
2016-06-23T06:59:37.499Z,40.26
2016-06-23T07:00:36.931Z,40.01
2016-06-23T07:01:37.585Z,40.12
2016-06-23T07:02:37.022Z,40.42
2016-06-23T07:03:51.937Z,40.35
2016-06-23T07:04:37.111Z,40.91
2016-06-23T07:05:37.161Z,41.01
2016-06-23T07:06:37.180Z,41.07
2016-06-23T07:07:37.192Z,40.99
2016-06-23T07:08:37.242Z,41.36
2016-06-23T07:09:36.669Z,41.76
2016-06-23T07:10:37.915Z,41.66
2016-06-23T07:12:38.017Z,41.57
2016-06-23T07:13:37.429Z,41.29
2016-06-23T07:15:37.513Z,41.94
2016-06-23T07:16:38.175Z,41.71
2016-06-23T07:17:37.597Z,41.99
2016-06-23T07:18:37.635Z,42.23
2016-06-23T07:19:51.945Z,41.49
2016-06-23T07:20:37.701Z,40.89
2016-06-23T07:21:38.364Z,39.75
2016-06-23T07:22:37.829Z,39.25
2016-06-23T07:24:38.508Z,38.84
2016-06-23T07:25:37.911Z,39.03
2016-06-23T07:26:37.334Z,38.76
2016-06-23T07:27:37.370Z,38.54
2016-06-23T07:28:38.024Z,38.69
2016-06-23T07:29:38.679Z,38.56
2016-06-23T07:30:38.094Z,38.12
2016-06-23T07:31:39.056Z,37.82
2016-06-23T07:32:38.805Z,37.85
2016-06-23T07:33:38.212Z,38.04
2016-06-23T07:34:38.867Z,37.86
2016-06-23T07:35:53.186Z,38.04
2016-06-23T07:36:38.351Z,38.2
2016-06-23T07:38:37.821Z,38.68
2016-06-23T07:39:38.442Z,38.78
2016-06-23T07:40:38.483Z,38.79
2016-06-23T07:41:39.126Z,38.49
2016-06-23T07:42:39.179Z,38.81
2016-06-23T07:43:38.643Z,39.4
2016-06-23T07:44:38.672Z,39.79
2016-06-23T07:45:38.686Z,40.19
2016-06-23T07:46:38.719Z,39.98
2016-06-23T07:47:38.768Z,39.86
2016-06-23T07:48:39.401Z,39.79
2016-06-23T07:49:38.812Z,39.72
2016-06-23T07:50:39.466Z,39.77
2016-06-23T07:51:53.789Z,39.85
2016-06-23T07:52:38.943Z,40.12
2016-06-23T07:53:38.987Z,39.69
2016-06-23T07:54:39.631Z,39.54
2016-06-23T07:55:39.671Z,39.88
2016-06-23T07:57:38.536Z,40.42
2016-06-23T07:58:39.784Z,40.19
2016-06-23T07:59:38.595Z,39.97
2016-06-23T08:00:39.248Z,39.16
2016-06-23T08:01:39.899Z,39.28
2016-06-23T08:02:39.933Z,39.36
2016-06-23T08:03:39.368Z,39.7
2016-06-23T08:04:39.381Z,39.97
2016-06-23T08:05:40.038Z,40.01
2016-06-23T08:06:53.751Z,40.07
2016-06-23T08:07:39.499Z,40.07
2016-06-23T08:08:38.941Z,40
2016-06-23T08:09:53.859Z,39.44
2016-06-23T08:10:40.247Z,39.43
2016-06-23T08:11:39.046Z,39.55
2016-06-23T08:12:39.100Z,39.89
2016-06-23T08:13:40.341Z,39.94
2016-06-23T08:14:39.799Z,39.94
2016-06-23T08:15:39.818Z,40.03
2016-06-23T08:16:40.468Z,40.04
2016-06-23T08:17:40.506Z,39.55
2016-06-23T08:18:40.539Z,39.73
2016-06-23T08:19:40.015Z,39.72
2016-06-23T08:20:40.073Z,39.66
2016-06-23T08:22:40.069Z,39.97
2016-06-23T08:23:40.121Z,40.13
2016-06-23T08:24:40.835Z,40.07
2016-06-23T08:25:55.079Z,40.25
2016-06-23T08:26:40.240Z,40.13
2016-06-23T08:27:54.542Z,39.91
2016-06-23T08:28:40.352Z,39.88
2016-06-23T08:29:39.733Z,39.18
2016-06-23T08:30:41.022Z,39.17
2016-06-23T08:31:41.046Z,39.17
2016-06-23T08:32:40.463Z,39.47
2016-06-23T08:33:54.778Z,39.82
2016-06-23T08:34:41.141Z,40.18
2016-06-23T08:35:39.954Z,40.22
2016-06-23T08:36:39.992Z,40.12
2016-06-23T08:38:55.557Z,40.2
2016-06-23T08:39:40.719Z,40.03
2016-06-23T08:40:41.382Z,39.85
2016-06-23T08:41:40.185Z,40.26
2016-06-23T08:42:41.442Z,40.35
2016-06-23T08:43:41.492Z,40.2
2016-06-23T08:44:55.179Z,40.35
2016-06-23T08:45:41.565Z,40.19
2016-06-23T08:46:41.596Z,40.01
2016-06-23T08:47:55.312Z,40.12
2016-06-23T08:48:41.064Z,39.98
2016-06-23T08:49:41.705Z,39.79
2016-06-23T08:50:40.532Z,40.2
2016-06-23T08:51:40.577Z,40.61
2016-06-23T08:52:41.252Z,40.23
2016-06-23T08:53:40.630Z,40.39
2016-06-23T08:54:56.162Z,40.8
2016-06-23T08:55:41.918Z,40.73
2016-06-23T08:56:40.745Z,41.17
2016-06-23T08:57:42.007Z,41.11
2016-06-23T08:58:56.314Z,40.84
2016-06-23T08:59:40.865Z,40.7
2016-06-23T09:00:40.892Z,40.2
2016-06-23T09:01:41.530Z,40.31
2016-06-23T09:02:55.883Z,40.55
2016-06-23T09:03:41.006Z,40.25
2016-06-23T09:04:41.653Z,40.22
2016-06-23T09:05:41.699Z,40.08
2016-06-23T09:06:41.762Z,40.48
2016-06-23T09:07:41.773Z,40.34
2016-06-23T09:08:42.421Z,40.39
2016-06-23T09:09:56.733Z,39.98
2016-06-23T09:10:56.770Z,39.7
2016-06-23T09:12:42.573Z,39.16
2016-06-23T09:13:41.992Z,39.16
2016-06-23T09:14:42.050Z,38.91
2016-06-23T09:15:41.454Z,38.9
2016-06-23T09:16:42.119Z,39.18
2016-06-23T09:17:42.152Z,39.21
2016-06-23T09:18:42.797Z,39.18
2016-06-23T09:19:42.231Z,39.17
2016-06-23T09:20:42.880Z,39.06
2016-06-23T09:21:42.308Z,39.18
2016-06-23T09:22:42.935Z,39.5
2016-06-23T09:23:42.363Z,39.73
2016-06-23T09:24:43.238Z,39.66
2016-06-23T09:25:56.717Z,39.54
2016-06-23T09:27:43.550Z,39.89
2016-06-23T09:28:43.158Z,40.03
2016-06-23T09:29:42.616Z,40.19
2016-06-23T09:30:43.242Z,39.98
2016-06-23T09:31:43.277Z,40.12
2016-06-23T09:32:43.303Z,40.08
2016-06-23T09:33:42.132Z,39.85
2016-06-23T09:34:42.764Z,39.97
2016-06-23T09:35:43.436Z,39.63
2016-06-23T09:36:57.710Z,40.25
2016-06-23T09:37:42.913Z,40.38
2016-06-23T09:38:42.290Z,40.04
2016-06-23T09:39:42.963Z,40.08
2016-06-23T09:40:57.263Z,40.22
2016-06-23T09:41:57.912Z,39.84
2016-06-23T09:42:43.061Z,39.07
2016-06-23T09:44:43.127Z,38.54
2016-06-23T09:45:43.170Z,38.84
2016-06-23T09:46:43.195Z,39.06
2016-06-23T09:47:43.850Z,39.23
2016-06-23T09:48:42.660Z,39.67
2016-06-23T09:49:43.925Z,39.73
2016-06-23T09:50:43.981Z,39.35
2016-06-23T09:51:43.403Z,39.7
2016-06-23T09:52:44.021Z,39.82
2016-06-23T09:53:43.471Z,39.84
2016-06-23T09:55:42.917Z,39.5
2016-06-23T09:56:43.559Z,39.09
2016-06-23T09:57:43.610Z,39.21
2016-06-23T09:58:58.511Z,39.21
2016-06-23T09:59:43.670Z,39.18
2016-06-23T10:00:43.705Z,39.36
2016-06-23T10:01:44.351Z,39.33
2016-06-23T10:02:43.771Z,39.33
2016-06-23T10:03:43.817Z,39.59
2016-06-23T10:04:44.458Z,39.33
2016-06-23T10:05:43.879Z,39.09
2016-06-23T10:06:44.529Z,39.06
2016-06-23T10:07:43.948Z,38.78
2016-06-23T10:08:43.983Z,38.9
2016-06-23T10:09:43.439Z,39.25
2016-06-23T10:10:44.053Z,39.64
2016-06-23T10:11:44.105Z,39.75
2016-06-23T10:12:44.118Z,39.81
2016-06-23T10:13:59.044Z,39.82
2016-06-23T10:14:44.186Z,39.98
2016-06-23T10:15:44.226Z,39.92
2016-06-23T10:16:44.882Z,39.57
2016-06-23T10:17:44.305Z,38.83
2016-06-23T10:18:43.721Z,38.69
2016-06-23T10:19:43.769Z,38.22
2016-06-23T10:20:44.425Z,38.4
2016-06-23T10:21:45.152Z,38.72
2016-06-23T10:22:44.486Z,38.95
2016-06-23T10:23:44.493Z,37.97
2016-06-23T10:24:43.948Z,37.89
2016-06-23T10:25:44.579Z,37.43
2016-06-23T10:26:45.224Z,37.31
2016-06-23T10:27:44.035Z,37.39
2016-06-23T10:28:44.673Z,37.07
2016-06-23T10:29:59.599Z,37.29
2016-06-23T10:30:59.636Z,37.18
2016-06-23T10:31:59.666Z,37.41
2016-06-23T10:32:44.219Z,37.18
2016-06-23T10:33:44.257Z,36.88
2016-06-23T10:34:44.920Z,36.73
2016-06-23T10:35:45.554Z,36.66
2016-06-23T10:36:45.645Z,36.68
2016-06-23T10:37:45.635Z,36.73
2016-06-23T10:38:59.934Z,36.83
2016-06-23T10:40:44.485Z,36.31
2016-06-23T10:41:45.742Z,36.07
2016-06-23T10:42:45.770Z,35.85
2016-06-23T10:43:45.187Z,35.65
2016-06-23T10:44:44.620Z,35.63
2016-06-23T10:46:00.148Z,35.53
2016-06-23T10:46:45.284Z,35.52
2016-06-23T10:47:45.335Z,35.4
2016-06-23T10:48:45.354Z,35.52
2016-06-23T10:49:44.781Z,35.48
2016-06-23T10:50:46.033Z,35.44
2016-06-23T10:51:46.075Z,35.52
2016-06-23T10:53:45.532Z,35.18
2016-06-23T10:54:46.179Z,34.89
2016-06-23T10:55:44.985Z,34.92
2016-06-23T10:56:46.237Z,34.61
2016-06-23T10:57:46.282Z,34.32
2016-06-23T10:58:45.691Z,34.1
2016-06-23T10:59:45.121Z,34.06
2016-06-23T11:00:46.382Z,34.46
2016-06-23T11:02:00.682Z,34.46
2016-06-23T11:02:45.833Z,34.44
2016-06-23T11:03:46.463Z,34.54
2016-06-23T11:04:45.928Z,34.46
2016-06-23T11:05:46.604Z,34.62
2016-06-23T11:06:46.573Z,34.65
2016-06-23T11:07:45.989Z,34.56
2016-06-23T11:08:46.635Z,34.32
2016-06-23T11:09:46.673Z,34.35
2016-06-23T11:10:46.713Z,34.34
2016-06-23T11:11:46.136Z,34.3
2016-06-23T11:12:45.567Z,34.42
2016-06-23T11:13:46.213Z,34.25
2016-06-23T11:14:46.848Z,34.08
2016-06-23T11:15:46.267Z,33.95
2016-06-23T11:17:01.179Z,34.08
2016-06-23T11:17:45.743Z,34.35
2016-06-23T11:18:46.977Z,34.44
2016-06-23T11:20:01.277Z,34.32
2016-06-23T11:20:46.435Z,34.25
2016-06-23T11:22:00.737Z,34.34
2016-06-23T11:22:47.127Z,34.64
2016-06-23T11:23:46.525Z,34.58
2016-06-23T11:24:46.619Z,34.65
2016-06-23T11:25:46.591Z,34.82
2016-06-23T11:26:46.018Z,34.78
2016-06-23T11:27:47.279Z,34.65
2016-06-23T11:28:47.298Z,34.61
2016-06-23T11:29:46.475Z,34.69
2016-06-23T11:30:46.147Z,34.54
2016-06-23T11:31:46.178Z,34.62
2016-06-23T11:32:46.808Z,34.73
2016-06-23T11:33:46.858Z,34.7
2016-06-23T11:34:47.492Z,34.85
2016-06-23T11:36:01.799Z,34.82
2016-06-23T11:36:46.941Z,34.87
2016-06-23T11:37:47.602Z,34.69
2016-06-23T11:38:47.635Z,34.46
2016-06-23T11:39:47.703Z,34.43
2016-06-23T11:40:46.467Z,34.47
2016-06-23T11:41:47.734Z,34.47
2016-06-23T11:42:47.150Z,34.52
2016-06-23T11:43:47.801Z,34.47
2016-06-23T11:44:47.216Z,34.32
2016-06-23T11:45:47.850Z,34.32
2016-06-23T11:46:47.933Z,34.31
2016-06-23T11:47:46.723Z,34.27
2016-06-23T11:49:02.228Z,34.08
2016-06-23T11:49:46.762Z,34.3
2016-06-23T11:50:47.406Z,34.21
2016-06-23T11:51:48.045Z,34.02
2016-06-23T11:52:48.085Z,34.03
2016-06-23T11:53:47.507Z,33.94
2016-06-23T11:54:46.950Z,33.82
2016-06-23T11:55:47.571Z,33.61
2016-06-23T11:56:48.210Z,33.73
2016-06-23T11:57:47.631Z,33.87
2016-06-23T11:58:47.678Z,33.87
2016-06-23T11:59:47.093Z,33.78
2016-06-23T12:00:47.736Z,33.78
2016-06-23T12:01:48.382Z,33.71
2016-06-23T12:02:47.788Z,33.53
2016-06-23T12:03:47.825Z,33.54
2016-06-23T12:05:02.741Z,33.69
2016-06-23T12:05:48.506Z,33.86
2016-06-23T12:06:47.937Z,33.68
2016-06-23T12:07:47.948Z,33.54
2016-06-23T12:08:48.588Z,33.45
2016-06-23T12:09:47.417Z,33.53
2016-06-23T12:10:48.658Z,33.72
2016-06-23T12:11:48.692Z,33.82
2016-06-23T12:12:48.124Z,33.94
2016-06-23T12:13:48.780Z,34.09
2016-06-23T12:14:48.800Z,33.94
2016-06-23T12:15:47.595Z,33.88
2016-06-23T12:16:48.851Z,33.97
2016-06-23T12:17:48.272Z,34.19
2016-06-23T12:19:03.192Z,34.08
2016-06-23T12:19:47.733Z,34.09
2016-06-23T12:21:03.253Z,34
2016-06-23T12:21:48.411Z,33.84
2016-06-23T12:22:48.448Z,33.79
2016-06-23T12:23:49.096Z,33.75
2016-06-23T12:24:47.899Z,33.71
2016-06-23T12:25:49.136Z,33.54
2016-06-23T12:26:49.179Z,33.49
2016-06-23T12:27:49.190Z,33.65
2016-06-23T12:28:48.015Z,33.88
2016-06-23T12:29:48.654Z,33.93
2016-06-23T12:30:48.697Z,33.98
2016-06-23T12:31:48.727Z,34.17
2016-06-23T12:32:48.155Z,34.34
2016-06-23T12:34:49.435Z,34.35
2016-06-23T12:35:48.853Z,34.3
2016-06-23T12:37:03.780Z,34.03
2016-06-23T12:37:48.922Z,33.9
2016-06-23T12:38:48.946Z,33.97
2016-06-23T12:39:49.603Z,34.1
2016-06-23T12:40:49.016Z,34.13
2016-06-23T12:41:48.427Z,34.1
2016-06-23T12:42:49.079Z,34.17
2016-06-23T12:43:49.733Z,34.22
2016-06-23T12:44:49.148Z,34.27
2016-06-23T12:45:49.787Z,34.28
2016-06-23T12:48:49.281Z,33.98
2016-06-23T12:49:49.920Z,34.02
2016-06-23T12:50:49.963Z,34.02
2016-06-23T12:52:03.642Z,34.08
2016-06-23T12:54:50.085Z,34.1
2016-06-23T12:55:50.110Z,34.06
2016-06-23T12:56:49.519Z,33.9
2016-06-23T12:57:49.566Z,33.84
2016-06-23T12:58:50.254Z,33.94
2016-06-23T13:00:50.265Z,33.97
2016-06-23T13:01:50.300Z,33.95
2016-06-23T13:02:49.766Z,34.09
2016-06-23T13:04:49.775Z,34.08
2016-06-23T13:05:50.435Z,34.1
2016-06-23T13:06:49.845Z,34.1
2016-06-23T13:08:04.148Z,34.19
2016-06-23T13:09:04.789Z,34.19
2016-06-23T13:09:50.590Z,34.27
2016-06-23T13:10:49.961Z,34.27
2016-06-23T13:11:49.996Z,34.21
2016-06-23T13:12:50.643Z,34.1
2016-06-23T13:13:50.702Z,34.35
2016-06-23T13:14:50.700Z,34.39
2016-06-23T13:15:50.125Z,34.3
2016-06-23T13:16:50.159Z,34.42
2016-06-23T13:17:49.586Z,34.39
2016-06-23T13:18:50.833Z,34.34
2016-06-23T13:19:50.251Z,34.21
2016-06-23T13:20:50.908Z,34.12
2016-06-23T13:21:50.317Z,34.21
2016-06-23T13:22:49.739Z,34.09
2016-06-23T13:24:04.660Z,34.05
2016-06-23T13:25:04.689Z,33.98
2016-06-23T13:25:50.455Z,33.93
2016-06-23T13:26:50.467Z,33.72
2016-06-23T13:27:50.522Z,33.86
2016-06-23T13:28:49.938Z,33.82
2016-06-23T13:29:49.977Z,34.02
2016-06-23T13:30:49.978Z,34.08
2016-06-23T13:31:51.246Z,34.09
2016-06-23T13:32:50.673Z,34.25
2016-06-23T13:33:51.317Z,34.1
2016-06-23T13:34:51.359Z,34.15
2016-06-23T13:36:05.651Z,34.15
2016-06-23T13:36:51.408Z,34.1
2016-06-23T13:37:51.456Z,34.1
2016-06-23T13:38:50.262Z,34.06
2016-06-23T13:40:05.782Z,34
2016-06-23T13:41:05.806Z,33.91
2016-06-23T13:41:51.573Z,33.9
2016-06-23T13:42:51.001Z,33.88
2016-06-23T13:44:05.898Z,33.87